createdAt,value
2022-10-18T00:00:02.982Z,99448.16
2022-10-18T00:03:05.639Z,99437.34
2022-10-18T00:06:10.108Z,99456.75
2022-10-18T00:09:12.921Z,99444.97
2022-10-18T00:12:16.889Z,99448.84
2022-10-18T00:15:19.779Z,99455.94
2022-10-18T00:18:23.077Z,99452.22
2022-10-18T00:21:26.772Z,99451.59
2022-10-18T00:24:29.471Z,99449.50
2022-10-18T00:27:33.793Z,99459.19
2022-10-18T00:30:36.455Z,99461.13
2022-10-18T00:33:39.603Z,99457.25
2022-10-18T00:36:43.069Z,99453.19
2022-10-18T00:39:45.748Z,99452.38
2022-10-18T00:42:49.766Z,99447.56
2022-10-18T00:45:52.409Z,99448.22
2022-10-18T00:48:57.234Z,99449.63
2022-10-18T00:52:07.682Z,99455.59
2022-10-18T00:55:11.191Z,99450.25
2022-10-18T00:58:15.564Z,99451.69
2022-10-18T01:01:18.825Z,99459.44
2022-10-18T01:04:22.208Z,99460.41
2022-10-18T01:07:35.192Z,99452.94
2022-10-18T01:10:44.089Z,99456.50
2022-10-18T01:14:02.330Z,99457.47
2022-10-18T01:17:09.222Z,99460.84
2022-10-18T01:20:32.267Z,99451.28
2022-10-18T01:23:58.809Z,99453.06
2022-10-18T01:27:36.160Z,99443.97
2022-10-18T01:30:47.981Z,99443.59
2022-10-18T01:33:53.548Z,99445.97
2022-10-18T01:36:57.743Z,99448.84
2022-10-18T01:40:00.876Z,99454.50
2022-10-18T01:43:04.165Z,99453.38
2022-10-18T01:46:09.473Z,99452.91
2022-10-18T01:49:12.109Z,99451.75
2022-10-18T01:52:15.590Z,99451.75
2022-10-18T01:55:18.366Z,99447.06
2022-10-18T01:58:26.635Z,99450.28
2022-10-18T02:01:36.300Z,99444.47
2022-10-18T02:04:45.530Z,99442.03
2022-10-18T02:08:00.339Z,99453.72
2022-10-18T02:11:17.642Z,99450.94
2022-10-18T02:14:21.479Z,99456.94
2022-10-18T02:17:27.175Z,99456.28
2022-10-18T02:20:32.372Z,99452.72
2022-10-18T02:23:35.330Z,99458.69
2022-10-18T02:26:38.139Z,99454.44
2022-10-18T02:29:42.337Z,99454.25
2022-10-18T02:32:50.935Z,99444.56
2022-10-18T02:35:59.870Z,99446.50
2022-10-18T02:39:06.251Z,99440.31
2022-10-18T02:42:11.690Z,99442.72
2022-10-18T02:45:14.834Z,99435.28
2022-10-18T02:48:19.034Z,99444.47
2022-10-18T02:51:21.719Z,99439.78
2022-10-18T02:54:24.820Z,99442.06
2022-10-18T02:57:27.701Z,99440.59
2022-10-18T03:00:30.382Z,99439.44
2022-10-18T03:03:34.275Z,99446.91
2022-10-18T03:06:36.941Z,99444.81
2022-10-18T03:09:39.577Z,99428.97
2022-10-18T03:12:42.247Z,99432.75
2022-10-18T03:15:44.983Z,99437.09
2022-10-18T03:18:49.017Z,99434.81
2022-10-18T03:21:51.671Z,99433.66
2022-10-18T03:24:54.544Z,99435.50
2022-10-18T03:27:57.210Z,99430.97
2022-10-18T03:31:02.073Z,99432.44
2022-10-18T03:34:06.068Z,99427.59
2022-10-18T03:37:08.738Z,99426.94
2022-10-18T03:40:12.117Z,99416.94
2022-10-18T03:43:14.848Z,99414.22
2022-10-18T03:46:17.503Z,99414.09
2022-10-18T03:49:21.555Z,99414.00
2022-10-18T03:52:24.190Z,99411.94
2022-10-18T03:55:26.825Z,99418.31
2022-10-18T03:58:29.622Z,99424.16
2022-10-18T04:01:32.548Z,99421.91
2022-10-18T04:04:36.665Z,99413.53
2022-10-18T04:07:39.505Z,99417.47
2022-10-18T04:10:42.743Z,99414.53
2022-10-18T04:13:45.296Z,99416.19
2022-10-18T04:16:48.040Z,99406.50
2022-10-18T04:19:52.023Z,99407.47
2022-10-18T04:22:57.539Z,99411.34
2022-10-18T04:26:00.190Z,99426.88
2022-10-18T04:29:02.916Z,99422.97
2022-10-18T04:32:05.930Z,99432.47
2022-10-18T04:35:11.485Z,99430.03
2022-10-18T04:38:14.884Z,99426.00
2022-10-18T04:41:17.518Z,99431.34
2022-10-18T04:44:20.251Z,99425.38
2022-10-18T04:47:23.092Z,99431.34
2022-10-18T04:50:27.083Z,99426.44
2022-10-18T04:53:29.872Z,99421.25
2022-10-18T04:56:32.708Z,99417.72
2022-10-18T04:59:35.363Z,99409.16
2022-10-18T05:02:38.159Z,99417.69
2022-10-18T05:06:00.937Z,99433.72
2022-10-18T05:09:05.106Z,99432.59
2022-10-18T05:12:07.835Z,99437.41
2022-10-18T05:15:11.511Z,99435.63
2022-10-18T05:18:14.292Z,99435.44
2022-10-18T05:21:18.494Z,99439.28
2022-10-18T05:24:23.038Z,99434.22
2022-10-18T05:27:29.274Z,99442.53
2022-10-18T05:30:32.015Z,99433.72
2022-10-18T05:33:35.098Z,99440.59
2022-10-18T05:36:39.222Z,99430.94
2022-10-18T05:39:41.856Z,99428.25
2022-10-18T05:42:44.824Z,99436.97
2022-10-18T05:45:50.751Z,99438.75
2022-10-18T05:48:53.360Z,99442.59
2022-10-18T05:51:57.455Z,99437.38
2022-10-18T05:55:00.128Z,99435.41
2022-10-18T05:58:02.831Z,99440.94
2022-10-18T06:01:06.724Z,99441.44
2022-10-18T06:04:10.186Z,99437.19
2022-10-18T06:07:14.038Z,99439.34
2022-10-18T06:10:16.762Z,99439.81
2022-10-18T06:13:19.376Z,99435.94
2022-10-18T06:16:24.815Z,99444.66
2022-10-18T06:19:29.958Z,99442.94
2022-10-18T06:22:33.985Z,99443.16
2022-10-18T06:25:36.622Z,99440.28
2022-10-18T06:28:39.608Z,99439.22
2022-10-18T06:31:42.313Z,99435.44
2022-10-18T06:34:44.939Z,99446.19
2022-10-18T06:37:48.994Z,99447.81
2022-10-18T06:40:51.690Z,99453.22
2022-10-18T06:43:57.360Z,99456.69
2022-10-18T06:47:00.052Z,99457.44
2022-10-18T06:50:02.826Z,99456.50
2022-10-18T06:53:08.704Z,99459.75
2022-10-18T06:56:13.035Z,99464.03
2022-10-18T06:59:16.002Z,99466.25
2022-10-18T07:02:18.661Z,99465.22
2022-10-18T07:05:21.452Z,99460.94
2022-10-18T07:08:25.632Z,99467.28
2022-10-18T07:11:28.301Z,99465.47
2022-10-18T07:14:31.126Z,99471.91
2022-10-18T07:17:34.069Z,99467.75
2022-10-18T07:20:36.947Z,99467.09
2022-10-18T07:23:42.764Z,99470.16
2022-10-18T07:26:45.361Z,99478.44
2022-10-18T07:29:48.719Z,99485.56
2022-10-18T07:32:52.480Z,99485.44
2022-10-18T07:35:55.049Z,99470.16
2022-10-18T07:38:59.616Z,99480.00
2022-10-18T07:42:02.254Z,99476.06
2022-10-18T07:45:05.345Z,99480.88
2022-10-18T07:48:08.056Z,99478.91
2022-10-18T07:51:11.017Z,99476.25
2022-10-18T07:54:14.967Z,99474.69
2022-10-18T07:57:17.589Z,99475.63
2022-10-18T08:00:20.512Z,99487.94
2022-10-18T08:03:23.155Z,99486.66
2022-10-18T08:06:25.899Z,99482.91
2022-10-18T08:09:30.018Z,99480.31
2022-10-18T08:12:32.700Z,99490.34
2022-10-18T08:15:35.297Z,99489.81
2022-10-18T08:18:39.043Z,99494.06
2022-10-18T08:21:42.062Z,99500.59
2022-10-18T08:24:46.192Z,99512.09
2022-10-18T08:27:49.136Z,99508.75
2022-10-18T08:30:51.791Z,99510.69
2022-10-18T08:33:56.115Z,99508.03
2022-10-18T08:36:58.840Z,99513.84
2022-10-18T08:40:02.881Z,99524.09
2022-10-18T08:43:08.477Z,99524.63
2022-10-18T08:46:13.354Z,99522.69
2022-10-18T08:49:24.181Z,99508.31
2022-10-18T08:52:33.228Z,99506.75
2022-10-18T08:55:40.145Z,99514.63
2022-10-18T08:58:44.918Z,99509.41
2022-10-18T09:01:58.258Z,99515.91
2022-10-18T09:05:03.073Z,99520.97
2022-10-18T09:08:35.014Z,99510.63
2022-10-18T09:11:48.196Z,99511.47
2022-10-18T09:15:16.408Z,99508.91
2022-10-18T09:18:32.980Z,99510.22
2022-10-18T09:21:43.260Z,99519.44
2022-10-18T09:24:49.566Z,99525.66
2022-10-18T09:27:56.210Z,99523.97
2022-10-18T09:31:03.549Z,99523.84
2022-10-18T09:34:10.435Z,99518.63
2022-10-18T09:37:14.929Z,99527.72
2022-10-18T09:40:20.799Z,99533.25
2022-10-18T09:43:27.152Z,99539.50
2022-10-18T09:46:33.682Z,99539.44
2022-10-18T09:49:40.262Z,99543.72
2022-10-18T09:52:47.216Z,99546.03
2022-10-18T09:55:57.877Z,99553.06
2022-10-18T09:59:02.030Z,99549.88
2022-10-18T10:02:05.200Z,99549.75
2022-10-18T10:08:18.126Z,99558.06
2022-10-18T10:11:29.628Z,99554.03
2022-10-18T10:14:44.186Z,99558.53
2022-10-18T10:17:55.126Z,99557.47
2022-10-18T10:21:00.205Z,99552.97
2022-10-18T10:24:04.512Z,99549.44
2022-10-18T10:27:08.545Z,99555.09
2022-10-18T10:30:25.930Z,99556.13
2022-10-18T10:33:34.686Z,99545.78
2022-10-18T10:36:47.672Z,99554.47
2022-10-18T10:40:17.786Z,99547.19
2022-10-18T10:43:36.927Z,99550.84
2022-10-18T10:46:41.564Z,99545.47
2022-10-18T10:49:47.280Z,99551.69
2022-10-18T10:52:50.035Z,99540.59
2022-10-18T10:55:54.845Z,99540.41
2022-10-18T10:59:03.049Z,99546.56
2022-10-18T11:02:23.819Z,99549.75
2022-10-18T11:05:29.295Z,99557.03
2022-10-18T11:08:36.562Z,99543.00
2022-10-18T11:11:42.513Z,99546.25
2022-10-18T11:14:48.286Z,99546.28
2022-10-18T11:18:03.999Z,99542.16
2022-10-18T11:21:10.880Z,99532.53
2022-10-18T11:24:16.718Z,99537.34
2022-10-18T11:27:24.749Z,99534.44
2022-10-18T11:30:38.113Z,99529.91
2022-10-18T11:34:09.932Z,99532.84
2022-10-18T11:37:30.343Z,99530.94
2022-10-18T11:40:48.345Z,99532.91
2022-10-18T11:44:03.055Z,99526.88
2022-10-18T11:47:13.185Z,99526.78
2022-10-18T11:50:26.224Z,99526.63
2022-10-18T11:53:30.020Z,99525.72
2022-10-18T11:56:37.943Z,99515.66
2022-10-18T11:59:46.907Z,99509.91
2022-10-18T12:02:58.555Z,99512.28
2022-10-18T12:06:06.465Z,99510.97
2022-10-18T12:09:17.483Z,99508.50
2022-10-18T12:12:24.184Z,99507.91
2022-10-18T12:15:28.535Z,99514.81
2022-10-18T12:18:31.633Z,99503.59
2022-10-18T12:21:35.690Z,99505.63
2022-10-18T12:24:38.727Z,99497.56
2022-10-18T12:27:45.308Z,99492.03
2022-10-18T12:30:52.667Z,99505.72
2022-10-18T12:33:59.082Z,99496.47
2022-10-18T12:37:27.737Z,99487.53
2022-10-18T12:40:35.606Z,99499.59
2022-10-18T12:43:38.243Z,99489.56
2022-10-18T12:46:45.099Z,99503.13
2022-10-18T12:49:57.155Z,99488.25
2022-10-18T12:53:06.576Z,99494.34
2022-10-18T12:56:37.573Z,99482.38
2022-10-18T12:59:43.001Z,99494.00
2022-10-18T13:02:45.745Z,99499.31
2022-10-18T13:05:56.701Z,99485.31
2022-10-18T13:09:20.752Z,99495.47
2022-10-18T13:12:48.273Z,99495.22
2022-10-18T13:15:55.048Z,99498.84
2022-10-18T13:19:00.483Z,99492.78
2022-10-18T13:22:18.945Z,99505.31
2022-10-18T13:25:27.366Z,99504.84
2022-10-18T13:28:35.650Z,99499.16
2022-10-18T13:31:42.886Z,99493.00
2022-10-18T13:34:45.632Z,99482.50
2022-10-18T13:37:58.997Z,99489.59
2022-10-18T13:41:03.942Z,99480.88
2022-10-18T13:44:25.750Z,99484.97
2022-10-18T13:47:35.752Z,99491.97
2022-10-18T13:50:39.289Z,99490.28
2022-10-18T13:53:48.205Z,99494.16
2022-10-18T13:57:03.177Z,99494.25
2022-10-18T14:00:23.032Z,99484.88
2022-10-18T14:03:57.685Z,99494.50
2022-10-18T14:07:03.402Z,99492.28
2022-10-18T14:10:11.350Z,99496.03
2022-10-18T14:13:20.834Z,99495.47
2022-10-18T14:16:35.970Z,99505.19
2022-10-18T14:19:42.027Z,99503.38
2022-10-18T14:22:47.593Z,99486.91
2022-10-18T14:25:50.507Z,99497.31
2022-10-18T14:29:05.055Z,99493.16
2022-10-18T14:32:10.625Z,99497.72
2022-10-18T14:35:37.117Z,99499.78
2022-10-18T14:38:46.767Z,99493.75
2022-10-18T14:41:51.565Z,99504.38
2022-10-18T14:44:56.658Z,99506.59
2022-10-18T14:48:15.268Z,99517.09
2022-10-18T14:51:18.079Z,99504.41
2022-10-18T14:54:27.637Z,99501.34
2022-10-18T14:57:37.152Z,99504.16
2022-10-18T15:00:43.887Z,99496.06
2022-10-18T15:03:49.489Z,99504.63
2022-10-18T15:06:52.193Z,99507.88
2022-10-18T15:09:54.959Z,99500.34
2022-10-18T15:13:16.099Z,99502.97
2022-10-18T15:16:21.943Z,99499.16
2022-10-18T15:19:29.997Z,99503.63
2022-10-18T15:22:33.735Z,99502.19
2022-10-18T15:25:36.490Z,99503.31
2022-10-18T15:28:49.524Z,99512.69
2022-10-18T15:31:53.793Z,99506.16
2022-10-18T15:34:57.190Z,99514.66
2022-10-18T15:38:02.508Z,99513.88
2022-10-18T15:41:39.510Z,99504.75
2022-10-18T15:44:49.308Z,99504.19
2022-10-18T15:48:05.125Z,99501.69
2022-10-18T15:51:09.005Z,99495.19
2022-10-18T15:54:18.356Z,99507.44
2022-10-18T15:57:21.129Z,99499.78
2022-10-18T16:00:23.718Z,99505.75
2022-10-18T16:03:28.423Z,99510.72
2022-10-18T16:06:32.375Z,99504.06
2022-10-18T16:09:35.264Z,99509.00
2022-10-18T16:12:38.178Z,99507.72
2022-10-18T16:15:41.148Z,99515.97
2022-10-18T16:18:45.329Z,99507.50
2022-10-18T16:21:48.040Z,99508.91
2022-10-18T16:24:52.566Z,99503.66
2022-10-18T16:27:55.223Z,99515.78
2022-10-18T16:30:59.824Z,99518.66
2022-10-18T16:34:04.164Z,99515.75
2022-10-18T16:37:06.967Z,99514.47
2022-10-18T16:40:22.906Z,99520.69
2022-10-18T16:43:25.946Z,99530.28
2022-10-18T16:46:30.111Z,99539.31
2022-10-18T16:49:34.249Z,99536.44
2022-10-18T16:52:37.363Z,99544.34
2022-10-18T16:55:41.485Z,99541.41
2022-10-18T16:58:44.627Z,99551.19
2022-10-18T17:01:47.566Z,99549.78
2022-10-18T17:04:51.663Z,99551.19
2022-10-18T17:07:54.401Z,99551.09
2022-10-18T17:10:58.562Z,99556.66
2022-10-18T17:14:01.246Z,99552.50
2022-10-18T17:17:03.952Z,99565.97
2022-10-18T17:20:09.642Z,99563.59
2022-10-18T17:23:12.569Z,99552.31
2022-10-18T17:26:28.359Z,99553.81
2022-10-18T17:29:32.162Z,99556.69
2022-10-18T17:32:34.850Z,99559.56
2022-10-18T17:35:39.646Z,99564.41
2022-10-18T17:38:42.495Z,99566.84
2022-10-18T17:41:45.318Z,99566.13
2022-10-18T17:44:48.248Z,99579.47
2022-10-18T17:47:51.273Z,99574.34
2022-10-18T17:50:55.516Z,99571.75
2022-10-18T17:53:58.191Z,99575.50
2022-10-18T17:57:00.958Z,99578.03
2022-10-18T18:00:05.926Z,99587.94
2022-10-18T18:03:08.739Z,99581.94
2022-10-18T18:06:17.965Z,99588.72
2022-10-18T18:09:21.200Z,99593.13
2022-10-18T18:12:24.180Z,99586.53
2022-10-18T18:15:27.075Z,99587.81
2022-10-18T18:18:29.922Z,99589.47
2022-10-18T18:21:34.438Z,99591.69
2022-10-18T18:24:37.420Z,99595.72
2022-10-18T18:27:40.232Z,99587.78
2022-10-18T18:30:43.130Z,99589.75
2022-10-18T18:33:46.321Z,99585.84
2022-10-18T18:36:51.934Z,99585.84
2022-10-18T18:39:54.587Z,99580.75
2022-10-18T18:43:12.083Z,99586.88
2022-10-18T18:46:21.775Z,99584.44
2022-10-18T18:49:24.589Z,99574.88
2022-10-18T18:52:28.807Z,99581.97
2022-10-18T18:55:33.823Z,99588.16
2022-10-18T18:58:38.133Z,99588.03
2022-10-18T19:01:41.420Z,99583.41
2022-10-18T19:04:44.372Z,99586.69
2022-10-18T19:07:48.569Z,99588.84
2022-10-18T19:10:51.352Z,99589.16
2022-10-18T19:13:54.363Z,99584.19
2022-10-18T19:16:59.000Z,99582.25
2022-10-18T19:20:02.408Z,99590.72
2022-10-18T19:23:06.467Z,99582.38
2022-10-18T19:26:12.836Z,99578.22
2022-10-18T19:29:16.953Z,99584.19
2022-10-18T19:32:19.847Z,99576.81
2022-10-18T19:35:22.950Z,99575.22
2022-10-18T19:38:27.149Z,99582.69
2022-10-18T19:41:30.096Z,99583.38
2022-10-18T19:44:33.975Z,99584.69
2022-10-18T19:47:38.551Z,99583.75
2022-10-18T19:50:41.341Z,99579.75
2022-10-18T19:53:45.573Z,99576.38
2022-10-18T19:56:48.545Z,99576.72
2022-10-18T19:59:51.237Z,99576.28
2022-10-18T20:02:53.988Z,99569.34
2022-10-18T20:05:57.830Z,99575.38
2022-10-18T20:09:01.991Z,99574.06
2022-10-18T20:12:05.183Z,99581.16
2022-10-18T20:15:09.406Z,99581.97
2022-10-18T20:18:12.187Z,99578.72
2022-10-18T20:21:18.028Z,99573.22
2022-10-18T20:24:22.163Z,99577.91
2022-10-18T20:27:27.408Z,99576.84
2022-10-18T20:30:30.410Z,99577.81
2022-10-18T20:33:34.004Z,99578.84
2022-10-18T20:36:37.150Z,99583.19
2022-10-18T20:39:41.835Z,99583.03
2022-10-18T20:42:44.549Z,99584.03
2022-10-18T20:45:47.300Z,99574.84
2022-10-18T20:48:50.653Z,99581.31
2022-10-18T20:51:53.326Z,99578.09
2022-10-18T20:54:57.512Z,99574.22
2022-10-18T20:58:00.224Z,99569.63
2022-10-18T21:01:07.862Z,99571.22
2022-10-18T21:04:11.497Z,99565.56
2022-10-18T21:07:14.277Z,99566.03
2022-10-18T21:10:18.525Z,99559.56
2022-10-18T21:13:21.379Z,99566.84
2022-10-18T21:16:24.296Z,99569.00
2022-10-18T21:19:28.174Z,99573.41
2022-10-18T21:22:31.290Z,99560.63
2022-10-18T21:25:35.727Z,99562.72
2022-10-18T21:28:38.606Z,99565.94
2022-10-18T21:31:43.338Z,99567.44
2022-10-18T21:34:46.059Z,99557.41
2022-10-18T21:37:48.783Z,99554.00
2022-10-18T21:40:52.814Z,99560.81
2022-10-18T21:43:56.638Z,99558.72
2022-10-18T21:46:59.251Z,99558.06
2022-10-18T21:50:01.965Z,99556.28
2022-10-18T21:53:04.586Z,99550.78
2022-10-18T21:56:10.696Z,99553.38
2022-10-18T21:59:13.895Z,99540.28
2022-10-18T22:02:16.619Z,99541.88
2022-10-18T22:05:19.818Z,99536.41
2022-10-18T22:08:22.958Z,99534.78
2022-10-18T22:11:29.125Z,99540.78
2022-10-18T22:14:31.775Z,99531.72
2022-10-18T22:17:34.676Z,99529.44
2022-10-18T22:20:37.644Z,99538.34
2022-10-18T22:23:42.335Z,99534.47
2022-10-18T22:26:47.112Z,99533.84
2022-10-18T22:29:49.765Z,99537.88
2022-10-18T22:32:52.486Z,99537.53
2022-10-18T22:35:55.147Z,99529.97
2022-10-18T22:38:57.863Z,99534.78
2022-10-18T22:42:01.920Z,99527.69
2022-10-18T22:45:05.103Z,99537.88
2022-10-18T22:48:07.864Z,99531.25
2022-10-18T22:51:11.129Z,99535.78
2022-10-18T22:54:13.836Z,99538.00
2022-10-18T22:57:17.809Z,99525.66
2022-10-18T23:00:20.437Z,99534.38
2022-10-18T23:03:23.196Z,99522.72
2022-10-18T23:06:27.250Z,99521.44
2022-10-18T23:09:29.913Z,99518.38
2022-10-18T23:12:34.426Z,99508.69
2022-10-18T23:15:39.037Z,99511.59
2022-10-18T23:18:41.724Z,99507.22
2022-10-18T23:21:44.365Z,99502.56
2022-10-18T23:24:47.081Z,99506.78
2022-10-18T23:27:51.145Z,99506.00
2022-10-18T23:30:53.842Z,99502.31
2022-10-18T23:33:58.321Z,99499.91
2022-10-18T23:37:00.939Z,99512.66
2022-10-18T23:40:03.592Z,99505.25
2022-10-18T23:43:07.565Z,99507.16
2022-10-18T23:46:10.270Z,99504.41
2022-10-18T23:49:13.048Z,99505.41
2022-10-18T23:52:15.752Z,99508.78
2022-10-18T23:55:18.417Z,99511.06
2022-10-18T23:58:22.601Z,99521.41
